sensor_id;sensor_type;location;lat;lon;timestamp;pressure;altitude;pressure_sealevel;temperature;humidity
26823;BME280;14852;51.910;8.878;2023-05-14T00:01:56;100102.56;;;12.74;46.87
26823;BME280;14852;51.910;8.878;2023-05-14T00:04:21;100103.78;;;12.68;47.01
26823;BME280;14852;51.910;8.878;2023-05-14T00:06:48;100095.19;;;12.66;47.51
26823;BME280;14852;51.910;8.878;2023-05-14T00:09:13;100098.81;;;12.63;47.19
26823;BME280;14852;51.910;8.878;2023-05-14T00:11:39;100102.50;;;12.59;47.56
26823;BME280;14852;51.910;8.878;2023-05-14T00:14:05;100095.94;;;12.52;47.31
26823;BME280;14852;51.910;8.878;2023-05-14T00:16:31;100091.75;;;12.50;47.50
26823;BME280;14852;51.910;8.878;2023-05-14T00:18:56;100096.25;;;12.46;47.83
26823;BME280;14852;51.910;8.878;2023-05-14T00:21:22;100090.25;;;12.46;47.64
26823;BME280;14852;51.910;8.878;2023-05-14T00:23:48;100087.63;;;12.46;47.85
26823;BME280;14852;51.910;8.878;2023-05-14T00:26:14;100079.72;;;12.47;47.89
26823;BME280;14852;51.910;8.878;2023-05-14T00:28:43;100087.44;;;12.49;48.01
26823;BME280;14852;51.910;8.878;2023-05-14T00:31:08;100078.63;;;12.51;47.86
26823;BME280;14852;51.910;8.878;2023-05-14T00:33:34;100081.16;;;12.53;47.62
26823;BME280;14852;51.910;8.878;2023-05-14T00:36:00;100084.00;;;12.48;48.24
26823;BME280;14852;51.910;8.878;2023-05-14T00:38:26;100083.66;;;12.39;48.28
26823;BME280;14852;51.910;8.878;2023-05-14T00:40:53;100079.72;;;12.31;48.81
26823;BME280;14852;51.910;8.878;2023-05-14T00:43:20;100085.25;;;12.25;48.41
26823;BME280;14852;51.910;8.878;2023-05-14T00:45:49;100078.34;;;12.24;48.42
26823;BME280;14852;51.910;8.878;2023-05-14T00:48:15;100075.09;;;12.21;48.79
26823;BME280;14852;51.910;8.878;2023-05-14T00:50:41;100079.78;;;12.14;48.98
26823;BME280;14852;51.910;8.878;2023-05-14T00:53:09;100075.00;;;12.07;48.93
26823;BME280;14852;51.910;8.878;2023-05-14T00:55:41;100076.97;;;12.02;49.20
26823;BME280;14852;51.910;8.878;2023-05-14T00:58:12;100074.56;;;11.99;49.04
26823;BME280;14852;51.910;8.878;2023-05-14T01:00:40;100076.72;;;11.90;49.15
26823;BME280;14852;51.910;8.878;2023-05-14T01:03:07;100072.59;;;11.86;49.39
26823;BME280;14852;51.910;8.878;2023-05-14T01:12:07;100061.97;;;11.74;49.24
26823;BME280;14852;51.910;8.878;2023-05-14T01:14:54;100060.34;;;11.71;49.15
26823;BME280;14852;51.910;8.878;2023-05-14T01:17:21;100053.31;;;11.73;49.19
26823;BME280;14852;51.910;8.878;2023-05-14T01:19:50;100060.16;;;11.76;49.32
26823;BME280;14852;51.910;8.878;2023-05-14T01:22:17;100056.38;;;11.81;49.56
26823;BME280;14852;51.910;8.878;2023-05-14T01:24:43;100054.47;;;11.85;49.44
26823;BME280;14852;51.910;8.878;2023-05-14T01:30:39;100054.88;;;11.93;49.52
26823;BME280;14852;51.910;8.878;2023-05-14T01:33:12;100051.84;;;11.85;49.52
26823;BME280;14852;51.910;8.878;2023-05-14T01:35:38;100051.00;;;11.84;49.03
26823;BME280;14852;51.910;8.878;2023-05-14T01:38:08;100049.88;;;11.73;49.47
26823;BME280;14852;51.910;8.878;2023-05-14T01:40:36;100049.31;;;11.66;49.73
26823;BME280;14852;51.910;8.878;2023-05-14T01:43:03;100059.00;;;11.64;49.74
26823;BME280;14852;51.910;8.878;2023-05-14T01:45:29;100061.81;;;11.59;50.23
26823;BME280;14852;51.910;8.878;2023-05-14T01:47:56;100057.25;;;11.47;50.56
26823;BME280;14852;51.910;8.878;2023-05-14T01:50:22;100048.94;;;11.41;50.39
26823;BME280;14852;51.910;8.878;2023-05-14T01:52:48;100050.91;;;11.36;50.81
26823;BME280;14852;51.910;8.878;2023-05-14T01:55:15;100047.72;;;11.31;50.56
26823;BME280;14852;51.910;8.878;2023-05-14T01:57:42;100043.66;;;11.25;50.96
26823;BME280;14852;51.910;8.878;2023-05-14T02:00:08;100050.63;;;11.24;50.47
26823;BME280;14852;51.910;8.878;2023-05-14T02:02:41;100045.47;;;11.23;50.59
26823;BME280;14852;51.910;8.878;2023-05-14T02:05:10;100048.22;;;11.20;50.76
26823;BME280;14852;51.910;8.878;2023-05-14T02:07:37;100049.31;;;11.16;50.61
26823;BME280;14852;51.910;8.878;2023-05-14T02:10:04;100048.69;;;11.11;50.68
26823;BME280;14852;51.910;8.878;2023-05-14T02:12:30;100050.53;;;11.09;51.15
26823;BME280;14852;51.910;8.878;2023-05-14T02:14:55;100051.53;;;11.06;51.16
26823;BME280;14852;51.910;8.878;2023-05-14T02:17:21;100049.00;;;11.05;51.00
26823;BME280;14852;51.910;8.878;2023-05-14T02:19:47;100049.16;;;11.02;51.01
26823;BME280;14852;51.910;8.878;2023-05-14T02:22:13;100044.88;;;11.01;51.27
26823;BME280;14852;51.910;8.878;2023-05-14T02:24:39;100046.69;;;10.99;51.33
26823;BME280;14852;51.910;8.878;2023-05-14T02:27:05;100044.34;;;10.94;51.65
26823;BME280;14852;51.910;8.878;2023-05-14T02:29:31;100042.72;;;10.92;51.43
26823;BME280;14852;51.910;8.878;2023-05-14T02:31:57;100042.88;;;10.88;51.33
26823;BME280;14852;51.910;8.878;2023-05-14T02:34:23;100056.84;;;10.86;51.38
26823;BME280;14852;51.910;8.878;2023-05-14T02:36:49;100045.72;;;10.84;51.70
26823;BME280;14852;51.910;8.878;2023-05-14T02:39:15;100042.94;;;10.87;51.75
26823;BME280;14852;51.910;8.878;2023-05-14T02:41:43;100040.13;;;10.92;51.71
26823;BME280;14852;51.910;8.878;2023-05-14T02:44:09;100038.97;;;10.97;51.48
26823;BME280;14852;51.910;8.878;2023-05-14T02:46:35;100032.66;;;11.03;51.69
26823;BME280;14852;51.910;8.878;2023-05-14T02:49:01;100032.56;;;11.04;51.78
26823;BME280;14852;51.910;8.878;2023-05-14T02:51:27;100031.88;;;11.01;51.69
26823;BME280;14852;51.910;8.878;2023-05-14T02:53:53;100034.69;;;10.96;51.61
26823;BME280;14852;51.910;8.878;2023-05-14T02:56:19;100037.59;;;10.90;52.22
26823;BME280;14852;51.910;8.878;2023-05-14T02:58:45;100031.09;;;10.81;52.39
26823;BME280;14852;51.910;8.878;2023-05-14T03:01:12;100042.56;;;10.77;52.42
26823;BME280;14852;51.910;8.878;2023-05-14T03:03:38;100041.13;;;10.72;52.37
26823;BME280;14852;51.910;8.878;2023-05-14T03:06:04;100042.09;;;10.69;52.49
26823;BME280;14852;51.910;8.878;2023-05-14T03:08:30;100037.88;;;10.67;52.61
26823;BME280;14852;51.910;8.878;2023-05-14T03:10:56;100034.38;;;10.68;52.60
26823;BME280;14852;51.910;8.878;2023-05-14T03:13:21;100033.31;;;10.72;52.23
26823;BME280;14852;51.910;8.878;2023-05-14T03:15:47;100038.28;;;10.76;52.67
26823;BME280;14852;51.910;8.878;2023-05-14T03:18:13;100029.34;;;10.82;52.14
26823;BME280;14852;51.910;8.878;2023-05-14T03:20:40;100027.28;;;10.88;52.34
26823;BME280;14852;51.910;8.878;2023-05-14T03:23:06;100028.69;;;10.96;52.28
26823;BME280;14852;51.910;8.878;2023-05-14T03:25:31;100033.78;;;10.97;52.61
26823;BME280;14852;51.910;8.878;2023-05-14T03:27:58;100028.81;;;10.93;52.65
26823;BME280;14852;51.910;8.878;2023-05-14T03:30:24;100025.66;;;10.86;52.64
26823;BME280;14852;51.910;8.878;2023-05-14T03:32:50;100026.91;;;10.79;52.75
26823;BME280;14852;51.910;8.878;2023-05-14T03:35:16;100029.81;;;10.73;52.92
26823;BME280;14852;51.910;8.878;2023-05-14T03:37:42;100025.72;;;10.67;53.21
26823;BME280;14852;51.910;8.878;2023-05-14T03:40:08;100025.19;;;10.61;53.04
26823;BME280;14852;51.910;8.878;2023-05-14T03:42:35;100023.50;;;10.60;53.24
26823;BME280;14852;51.910;8.878;2023-05-14T03:45:02;100025.28;;;10.59;53.28
26823;BME280;14852;51.910;8.878;2023-05-14T03:47:28;100023.59;;;10.58;53.54
26823;BME280;14852;51.910;8.878;2023-05-14T03:49:55;100029.69;;;10.57;53.67
26823;BME280;14852;51.910;8.878;2023-05-14T03:52:21;100024.50;;;10.57;53.43
26823;BME280;14852;51.910;8.878;2023-05-14T03:54:47;100021.00;;;10.58;53.68
26823;BME280;14852;51.910;8.878;2023-05-14T03:57:14;100025.03;;;10.64;53.26
26823;BME280;14852;51.910;8.878;2023-05-14T03:59:40;100023.06;;;10.69;53.18
26823;BME280;14852;51.910;8.878;2023-05-14T04:02:06;100024.59;;;10.73;53.19
26823;BME280;14852;51.910;8.878;2023-05-14T04:04:32;100028.88;;;10.74;53.25
26823;BME280;14852;51.910;8.878;2023-05-14T04:06:58;100025.53;;;10.72;53.55
26823;BME280;14852;51.910;8.878;2023-05-14T04:09:27;100027.34;;;10.70;53.53
26823;BME280;14852;51.910;8.878;2023-05-14T04:11:53;100023.84;;;10.71;53.35
26823;BME280;14852;51.910;8.878;2023-05-14T04:14:18;100026.25;;;10.74;53.40
26823;BME280;14852;51.910;8.878;2023-05-14T04:16:44;100023.44;;;10.78;53.42
26823;BME280;14852;51.910;8.878;2023-05-14T04:19:10;100025.66;;;10.86;53.31
26823;BME280;14852;51.910;8.878;2023-05-14T04:21:36;100020.09;;;10.94;53.25
26823;BME280;14852;51.910;8.878;2023-05-14T04:24:02;100026.06;;;10.96;53.07
26823;BME280;14852;51.910;8.878;2023-05-14T04:26:28;100023.22;;;11.00;53.42
26823;BME280;14852;51.910;8.878;2023-05-14T04:28:54;100020.41;;;11.05;53.02
26823;BME280;14852;51.910;8.878;2023-05-14T04:31:20;100017.56;;;11.09;53.28
26823;BME280;14852;51.910;8.878;2023-05-14T04:33:45;100020.63;;;11.17;53.00
26823;BME280;14852;51.910;8.878;2023-05-14T04:36:11;100006.56;;;11.54;53.00
26823;BME280;14852;51.910;8.878;2023-05-14T04:38:37;99999.13;;;11.97;51.96
26823;BME280;14852;51.910;8.878;2023-05-14T04:41:03;100002.28;;;13.09;50.14
26823;BME280;14852;51.910;8.878;2023-05-14T04:43:29;100004.63;;;14.41;47.56
26823;BME280;14852;51.910;8.878;2023-05-14T04:45:55;99993.63;;;15.53;45.31
26823;BME280;14852;51.910;8.878;2023-05-14T04:48:20;99986.44;;;16.54;43.71
26823;BME280;14852;51.910;8.878;2023-05-14T04:50:46;99994.59;;;17.43;42.91
26823;BME280;14852;51.910;8.878;2023-05-14T04:53:12;99991.69;;;18.24;41.68
26823;BME280;14852;51.910;8.878;2023-05-14T04:55:38;99993.69;;;18.86;41.01
26823;BME280;14852;51.910;8.878;2023-05-14T04:58:04;99977.97;;;19.47;40.48
26823;BME280;14852;51.910;8.878;2023-05-14T05:00:29;99975.28;;;20.08;39.87
26823;BME280;14852;51.910;8.878;2023-05-14T05:02:55;99973.03;;;20.72;39.17
26823;BME280;14852;51.910;8.878;2023-05-14T05:05:21;99974.75;;;21.39;38.36
26823;BME280;14852;51.910;8.878;2023-05-14T05:07:47;99965.47;;;21.99;37.46
26823;BME280;14852;51.910;8.878;2023-05-14T05:10:13;99978.84;;;22.43;37.02
26823;BME280;14852;51.910;8.878;2023-05-14T05:12:40;99965.53;;;22.88;36.90
26823;BME280;14852;51.910;8.878;2023-05-14T05:15:06;99973.09;;;23.27;36.23
26823;BME280;14852;51.910;8.878;2023-05-14T05:17:34;99959.38;;;23.65;36.34
26823;BME280;14852;51.910;8.878;2023-05-14T05:19:59;99955.59;;;24.10;35.68
26823;BME280;14852;51.910;8.878;2023-05-14T05:22:25;99959.31;;;24.58;35.04
26823;BME280;14852;51.910;8.878;2023-05-14T05:24:51;99958.03;;;25.02;34.37
26823;BME280;14852;51.910;8.878;2023-05-14T05:27:17;99960.47;;;25.28;33.70
26823;BME280;14852;51.910;8.878;2023-05-14T05:29:43;99959.13;;;25.32;33.91
26823;BME280;14852;51.910;8.878;2023-05-14T05:32:09;99961.66;;;25.25;33.78
26823;BME280;14852;51.910;8.878;2023-05-14T05:34:35;99961.13;;;25.38;33.48
26823;BME280;14852;51.910;8.878;2023-05-14T05:37:01;99953.56;;;25.66;33.27
26823;BME280;14852;51.910;8.878;2023-05-14T05:39:27;99954.78;;;25.94;32.97
26823;BME280;14852;51.910;8.878;2023-05-14T05:42:00;99955.16;;;26.45;32.87
26823;BME280;14852;51.910;8.878;2023-05-14T05:44:26;99951.06;;;26.80;32.15
26823;BME280;14852;51.910;8.878;2023-05-14T05:46:52;99943.16;;;27.10;31.38
26823;BME280;14852;51.910;8.878;2023-05-14T05:49:20;99944.16;;;27.38;31.68
26823;BME280;14852;51.910;8.878;2023-05-14T05:51:46;99936.25;;;27.89;31.06
26823;BME280;14852;51.910;8.878;2023-05-14T05:54:12;99940.69;;;28.18;30.56
26823;BME280;14852;51.910;8.878;2023-05-14T05:56:37;99947.72;;;28.40;30.06
26823;BME280;14852;51.910;8.878;2023-05-14T05:59:03;99945.34;;;28.52;30.10
26823;BME280;14852;51.910;8.878;2023-05-14T06:01:29;99951.47;;;28.67;30.13
26823;BME280;14852;51.910;8.878;2023-05-14T06:03:55;99949.53;;;29.03;29.94
26823;BME280;14852;51.910;8.878;2023-05-14T06:06:21;99941.84;;;29.22;29.59
26823;BME280;14852;51.910;8.878;2023-05-14T06:08:47;99938.94;;;29.16;29.53
26823;BME280;14852;51.910;8.878;2023-05-14T06:11:13;99939.50;;;29.12;29.49
26823;BME280;14852;51.910;8.878;2023-05-14T06:13:39;99943.06;;;28.91;29.63
26823;BME280;14852;51.910;8.878;2023-05-14T06:16:05;99942.56;;;29.09;29.50
26823;BME280;14852;51.910;8.878;2023-05-14T06:18:30;99944.50;;;29.22;29.38
26823;BME280;14852;51.910;8.878;2023-05-14T06:20:57;99946.13;;;29.44;29.57
26823;BME280;14852;51.910;8.878;2023-05-14T06:23:24;99939.28;;;29.76;29.24
26823;BME280;14852;51.910;8.878;2023-05-14T06:25:51;99939.75;;;29.93;28.72
26823;BME280;14852;51.910;8.878;2023-05-14T06:28:17;99942.44;;;29.93;29.21
26823;BME280;14852;51.910;8.878;2023-05-14T06:30:43;99946.41;;;29.97;29.28
26823;BME280;14852;51.910;8.878;2023-05-14T06:33:08;99950.00;;;30.50;28.41
26823;BME280;14852;51.910;8.878;2023-05-14T06:35:34;99945.31;;;30.58;28.82
26823;BME280;14852;51.910;8.878;2023-05-14T06:38:00;99948.81;;;30.85;28.55
26823;BME280;14852;51.910;8.878;2023-05-14T06:40:26;99953.34;;;30.72;28.00
26823;BME280;14852;51.910;8.878;2023-05-14T06:42:51;99947.59;;;30.68;28.57
26823;BME280;14852;51.910;8.878;2023-05-14T06:45:18;99945.09;;;31.00;28.00
26823;BME280;14852;51.910;8.878;2023-05-14T06:47:44;99937.63;;;31.41;27.65
26823;BME280;14852;51.910;8.878;2023-05-14T06:50:10;99931.88;;;31.89;27.19
26823;BME280;14852;51.910;8.878;2023-05-14T06:52:36;99937.56;;;32.12;26.93
26823;BME280;14852;51.910;8.878;2023-05-14T06:55:01;99944.44;;;32.01;26.98
26823;BME280;14852;51.910;8.878;2023-05-14T06:57:27;99935.44;;;32.27;26.43
26823;BME280;14852;51.910;8.878;2023-05-14T06:59:53;99935.47;;;32.52;26.46
26823;BME280;14852;51.910;8.878;2023-05-14T07:02:19;99934.22;;;33.04;25.39
26823;BME280;14852;51.910;8.878;2023-05-14T07:04:45;99936.91;;;33.29;25.90
26823;BME280;14852;51.910;8.878;2023-05-14T07:07:11;99930.78;;;33.77;25.25
26823;BME280;14852;51.910;8.878;2023-05-14T07:09:40;99929.56;;;33.91;24.92
26823;BME280;14852;51.910;8.878;2023-05-14T07:12:07;99937.59;;;33.79;24.98
26823;BME280;14852;51.910;8.878;2023-05-14T07:14:32;99935.41;;;33.52;24.82
26823;BME280;14852;51.910;8.878;2023-05-14T07:16:59;99927.56;;;33.32;24.42
26823;BME280;14852;51.910;8.878;2023-05-14T07:19:25;99932.59;;;33.22;24.44
26823;BME280;14852;51.910;8.878;2023-05-14T07:21:53;99929.56;;;33.12;24.95
26823;BME280;14852;51.910;8.878;2023-05-14T07:24:18;99932.09;;;32.88;25.16
26823;BME280;14852;51.910;8.878;2023-05-14T07:26:44;99931.03;;;32.64;24.67
26823;BME280;14852;51.910;8.878;2023-05-14T07:29:10;99923.91;;;32.45;24.63
26823;BME280;14852;51.910;8.878;2023-05-14T07:31:36;99927.63;;;32.51;24.67
26823;BME280;14852;51.910;8.878;2023-05-14T07:34:01;99929.81;;;32.60;24.64
26823;BME280;14852;51.910;8.878;2023-05-14T07:36:27;99921.53;;;32.62;24.26
26823;BME280;14852;51.910;8.878;2023-05-14T07:38:53;99924.34;;;32.73;24.41
26823;BME280;14852;51.910;8.878;2023-05-14T07:41:19;99918.75;;;33.00;24.18
26823;BME280;14852;51.910;8.878;2023-05-14T07:43:45;99921.25;;;32.70;23.96
26823;BME280;14852;51.910;8.878;2023-05-14T07:46:11;99919.13;;;32.22;23.89
26823;BME280;14852;51.910;8.878;2023-05-14T07:48:37;99922.59;;;31.85;24.48
26823;BME280;14852;51.910;8.878;2023-05-14T07:51:02;99918.03;;;31.85;24.79
26823;BME280;14852;51.910;8.878;2023-05-14T07:53:28;99910.66;;;31.81;24.29
26823;BME280;14852;51.910;8.878;2023-05-14T07:55:54;99907.97;;;32.12;24.37
26823;BME280;14852;51.910;8.878;2023-05-14T07:58:20;99904.97;;;32.33;24.05
26823;BME280;14852;51.910;8.878;2023-05-14T08:00:45;99908.81;;;32.44;24.07
26823;BME280;14852;51.910;8.878;2023-05-14T08:03:11;99904.72;;;32.42;23.46
26823;BME280;14852;51.910;8.878;2023-05-14T08:05:37;99906.41;;;32.36;24.29
26823;BME280;14852;51.910;8.878;2023-05-14T08:08:03;99901.53;;;32.20;24.09
26823;BME280;14852;51.910;8.878;2023-05-14T08:10:30;99907.00;;;32.07;24.70
26823;BME280;14852;51.910;8.878;2023-05-14T08:12:55;99897.09;;;32.00;24.66
26823;BME280;14852;51.910;8.878;2023-05-14T08:15:21;99910.19;;;31.19;25.18
26823;BME280;14852;51.910;8.878;2023-05-14T08:17:47;99913.31;;;30.44;26.31
26823;BME280;14852;51.910;8.878;2023-05-14T08:20:13;99910.53;;;29.15;27.19
26823;BME280;14852;51.910;8.878;2023-05-14T08:22:39;99907.44;;;28.41;28.82
26823;BME280;14852;51.910;8.878;2023-05-14T08:25:05;99908.56;;;27.60;29.16
26823;BME280;14852;51.910;8.878;2023-05-14T08:27:31;99918.16;;;27.11;29.74
26823;BME280;14852;51.910;8.878;2023-05-14T08:29:57;99913.16;;;26.70;30.55
26823;BME280;14852;51.910;8.878;2023-05-14T08:32:22;99917.75;;;26.08;31.43
26823;BME280;14852;51.910;8.878;2023-05-14T08:34:48;99918.16;;;25.57;32.42
26823;BME280;14852;51.910;8.878;2023-05-14T08:37:14;99918.88;;;25.43;32.80
26823;BME280;14852;51.910;8.878;2023-05-14T08:39:40;99914.72;;;25.41;33.26
26823;BME280;14852;51.910;8.878;2023-05-14T08:42:06;99914.28;;;25.21;33.11
26823;BME280;14852;51.910;8.878;2023-05-14T08:44:51;99918.81;;;24.96;33.41
26823;BME280;14852;51.910;8.878;2023-05-14T08:47:20;99917.00;;;24.80;33.02
26823;BME280;14852;51.910;8.878;2023-05-14T08:50:00;99916.00;;;24.73;33.65
26823;BME280;14852;51.910;8.878;2023-05-14T08:52:27;99913.50;;;24.64;33.72
26823;BME280;14852;51.910;8.878;2023-05-14T08:54:53;99908.53;;;24.69;33.81
26823;BME280;14852;51.910;8.878;2023-05-14T08:57:21;99906.03;;;24.67;33.99
26823;BME280;14852;51.910;8.878;2023-05-14T08:59:50;99905.22;;;24.67;33.66
26823;BME280;14852;51.910;8.878;2023-05-14T09:02:16;99904.84;;;24.70;34.39
26823;BME280;14852;51.910;8.878;2023-05-14T09:04:45;99899.91;;;24.67;33.63
26823;BME280;14852;51.910;8.878;2023-05-14T09:07:12;99905.22;;;24.50;33.90
26823;BME280;14852;51.910;8.878;2023-05-14T09:09:38;99897.75;;;24.46;34.04
26823;BME280;14852;51.910;8.878;2023-05-14T09:12:05;99906.38;;;24.48;34.18
26823;BME280;14852;51.910;8.878;2023-05-14T09:14:32;99902.41;;;24.44;34.25
26823;BME280;14852;51.910;8.878;2023-05-14T09:16:58;99902.06;;;24.31;34.42
26823;BME280;14852;51.910;8.878;2023-05-14T09:19:23;99897.72;;;24.38;34.80
26823;BME280;14852;51.910;8.878;2023-05-14T09:21:50;99899.72;;;24.52;34.50
26823;BME280;14852;51.910;8.878;2023-05-14T09:24:21;99896.06;;;24.77;33.94
26823;BME280;14852;51.910;8.878;2023-05-14T09:26:52;99890.88;;;25.08;33.90
26823;BME280;14852;51.910;8.878;2023-05-14T09:29:18;99894.19;;;25.27;33.57
26823;BME280;14852;51.910;8.878;2023-05-14T09:31:44;99884.56;;;25.56;33.57
26823;BME280;14852;51.910;8.878;2023-05-14T09:34:10;99881.41;;;25.92;32.80
26823;BME280;14852;51.910;8.878;2023-05-14T09:36:36;99883.06;;;25.93;32.92
26823;BME280;14852;51.910;8.878;2023-05-14T09:39:05;99883.38;;;25.67;32.60
26823;BME280;14852;51.910;8.878;2023-05-14T09:41:30;99874.06;;;25.63;32.65
26823;BME280;14852;51.910;8.878;2023-05-14T09:43:56;99876.91;;;25.61;33.17
26823;BME280;14852;51.910;8.878;2023-05-14T09:46:22;99868.09;;;25.53;33.31
26823;BME280;14852;51.910;8.878;2023-05-14T09:48:49;99860.84;;;25.47;33.44
26823;BME280;14852;51.910;8.878;2023-05-14T09:51:16;99874.03;;;25.32;33.77
26823;BME280;14852;51.910;8.878;2023-05-14T09:53:45;99867.31;;;25.44;32.96
26823;BME280;14852;51.910;8.878;2023-05-14T09:56:11;99863.09;;;25.66;32.52
26823;BME280;14852;51.910;8.878;2023-05-14T09:58:37;99867.78;;;25.87;32.37
26823;BME280;14852;51.910;8.878;2023-05-14T10:01:03;99862.47;;;25.87;31.86
26823;BME280;14852;51.910;8.878;2023-05-14T10:03:30;99859.03;;;25.78;32.22
26823;BME280;14852;51.910;8.878;2023-05-14T10:06:03;99850.97;;;25.94;32.69
26823;BME280;14852;51.910;8.878;2023-05-14T10:08:33;99851.06;;;26.01;32.39
26823;BME280;14852;51.910;8.878;2023-05-14T10:11:07;99862.34;;;25.80;32.51
26823;BME280;14852;51.910;8.878;2023-05-14T10:13:41;99858.47;;;25.52;32.76
26823;BME280;14852;51.910;8.878;2023-05-14T10:16:20;99863.78;;;25.60;32.65
26823;BME280;14852;51.910;8.878;2023-05-14T10:18:51;99863.09;;;25.66;32.79
26823;BME280;14852;51.910;8.878;2023-05-14T10:21:19;99853.44;;;25.65;32.42
26823;BME280;14852;51.910;8.878;2023-05-14T10:23:47;99855.09;;;25.66;33.05
26823;BME280;14852;51.910;8.878;2023-05-14T10:26:14;99857.47;;;25.61;32.50
26823;BME280;14852;51.910;8.878;2023-05-14T10:28:40;99855.25;;;25.73;32.64
26823;BME280;14852;51.910;8.878;2023-05-14T10:31:09;99853.81;;;25.85;32.02
26823;BME280;14852;51.910;8.878;2023-05-14T10:33:47;99851.97;;;25.93;31.90
26823;BME280;14852;51.910;8.878;2023-05-14T10:36:16;99841.06;;;26.03;32.00
26823;BME280;14852;51.910;8.878;2023-05-14T10:38:43;99840.81;;;26.13;32.07
26823;BME280;14852;51.910;8.878;2023-05-14T10:41:11;99836.44;;;26.20;31.68
26823;BME280;14852;51.910;8.878;2023-05-14T10:43:40;99835.44;;;26.44;31.75
26823;BME280;14852;51.910;8.878;2023-05-14T10:46:07;99838.50;;;26.55;31.85
26823;BME280;14852;51.910;8.878;2023-05-14T10:48:34;99833.25;;;26.47;31.25
26823;BME280;14852;51.910;8.878;2023-05-14T10:51:01;99833.91;;;26.49;31.60
26823;BME280;14852;51.910;8.878;2023-05-14T10:53:39;99830.88;;;26.52;31.32
26823;BME280;14852;51.910;8.878;2023-05-14T10:56:13;99820.00;;;26.39;31.20
26823;BME280;14852;51.910;8.878;2023-05-14T10:58:43;99816.03;;;26.12;31.04
26823;BME280;14852;51.910;8.878;2023-05-14T11:01:11;99812.84;;;25.94;31.33
26823;BME280;14852;51.910;8.878;2023-05-14T11:03:45;99814.94;;;26.07;31.13
26823;BME280;14852;51.910;8.878;2023-05-14T11:06:14;99813.59;;;26.25;31.38
26823;BME280;14852;51.910;8.878;2023-05-14T11:08:40;99814.69;;;26.39;31.13
26823;BME280;14852;51.910;8.878;2023-05-14T11:11:07;99824.91;;;26.50;31.21
26823;BME280;14852;51.910;8.878;2023-05-14T11:13:33;99818.19;;;26.54;30.94
26823;BME280;14852;51.910;8.878;2023-05-14T11:16:01;99803.13;;;26.61;30.65
26823;BME280;14852;51.910;8.878;2023-05-14T11:18:32;99809.75;;;26.80;30.83
26823;BME280;14852;51.910;8.878;2023-05-14T11:21:05;99796.97;;;26.61;30.77
26823;BME280;14852;51.910;8.878;2023-05-14T11:23:31;99798.25;;;26.50;30.96
26823;BME280;14852;51.910;8.878;2023-05-14T11:25:57;99804.19;;;26.38;31.25
26823;BME280;14852;51.910;8.878;2023-05-14T11:28:25;99799.78;;;26.30;30.72
26823;BME280;14852;51.910;8.878;2023-05-14T11:30:52;99797.63;;;26.25;31.31
26823;BME280;14852;51.910;8.878;2023-05-14T11:33:19;99797.13;;;26.22;30.80
26823;BME280;14852;51.910;8.878;2023-05-14T11:35:47;99801.00;;;25.96;31.03
26823;BME280;14852;51.910;8.878;2023-05-14T11:38:19;99798.31;;;25.82;31.42
26823;BME280;14852;51.910;8.878;2023-05-14T11:40:57;99797.06;;;25.61;31.61
26823;BME280;14852;51.910;8.878;2023-05-14T11:43:23;99797.31;;;25.13;32.04
26823;BME280;14852;51.910;8.878;2023-05-14T11:45:50;99800.94;;;24.65;32.83
26823;BME280;14852;51.910;8.878;2023-05-14T11:48:17;99795.50;;;24.42;33.61
26823;BME280;14852;51.910;8.878;2023-05-14T11:50:51;99791.50;;;24.38;32.95
26823;BME280;14852;51.910;8.878;2023-05-14T11:53:18;99793.81;;;24.41;33.06
26823;BME280;14852;51.910;8.878;2023-05-14T11:55:45;99785.66;;;24.50;33.07
26823;BME280;14852;51.910;8.878;2023-05-14T11:58:12;99777.50;;;24.60;32.87
26823;BME280;14852;51.910;8.878;2023-05-14T12:00:38;99783.81;;;24.67;32.85
26823;BME280;14852;51.910;8.878;2023-05-14T12:03:05;99783.47;;;24.78;32.63
26823;BME280;14852;51.910;8.878;2023-05-14T12:05:31;99786.78;;;24.80;32.77
26823;BME280;14852;51.910;8.878;2023-05-14T12:07:57;99784.44;;;24.85;32.67
26823;BME280;14852;51.910;8.878;2023-05-14T12:10:23;99776.94;;;24.97;32.24
26823;BME280;14852;51.910;8.878;2023-05-14T12:12:49;99771.78;;;24.96;32.18
26823;BME280;14852;51.910;8.878;2023-05-14T12:15:15;99772.13;;;25.01;32.29
26823;BME280;14852;51.910;8.878;2023-05-14T12:17:49;99769.34;;;25.25;32.11
26823;BME280;14852;51.910;8.878;2023-05-14T12:20:16;99767.34;;;25.50;31.40
26823;BME280;14852;51.910;8.878;2023-05-14T12:22:42;99764.63;;;25.66;31.10
26823;BME280;14852;51.910;8.878;2023-05-14T12:25:12;99762.44;;;25.70;31.20
26823;BME280;14852;51.910;8.878;2023-05-14T12:27:38;99756.63;;;25.89;30.53
26823;BME280;14852;51.910;8.878;2023-05-14T12:30:05;99753.34;;;26.24;29.96
26823;BME280;14852;51.910;8.878;2023-05-14T12:32:32;99750.84;;;26.60;29.23
26823;BME280;14852;51.910;8.878;2023-05-14T12:34:59;99748.91;;;26.69;29.36
26823;BME280;14852;51.910;8.878;2023-05-14T12:37:26;99746.41;;;26.67;29.73
26823;BME280;14852;51.910;8.878;2023-05-14T12:39:53;99745.59;;;26.67;29.10
26823;BME280;14852;51.910;8.878;2023-05-14T12:42:19;99734.28;;;26.80;29.48
26823;BME280;14852;51.910;8.878;2023-05-14T12:44:44;99737.69;;;26.88;29.56
26823;BME280;14852;51.910;8.878;2023-05-14T12:47:10;99737.41;;;26.83;29.54
26823;BME280;14852;51.910;8.878;2023-05-14T12:49:36;99732.66;;;26.93;29.36
26823;BME280;14852;51.910;8.878;2023-05-14T12:52:02;99728.66;;;26.89;28.98
26823;BME280;14852;51.910;8.878;2023-05-14T12:54:28;99725.03;;;26.76;29.47
26823;BME280;14852;51.910;8.878;2023-05-14T12:56:53;99728.16;;;26.64;29.83
26823;BME280;14852;51.910;8.878;2023-05-14T12:59:19;99723.81;;;26.63;30.13
26823;BME280;14852;51.910;8.878;2023-05-14T13:01:45;99715.00;;;26.63;30.00
26823;BME280;14852;51.910;8.878;2023-05-14T13:04:11;99711.59;;;26.54;30.28
26823;BME280;14852;51.910;8.878;2023-05-14T13:06:38;99717.94;;;26.39;30.82